Terminal Aerodrome Forecast
Issued by NWS Portland, OR

Home | Current Version | Previous Version | Text Only | Print | Product List | Glossary On
Versions: 1 2 3 4 5 6 7 8 9 10 11 12 13 14 15 16 17
000
FTUS46 KPQR 241127
TAFAST
TAF
KAST 241127Z 2412/2512 12004KT P6SM SCT050 OVC100
     FM242000 08005KT 6SM -RA OVC050
     FM250400 15012KT P6SM SCT050 OVC080=

USA.gov is the U.S. government's official web portal to all federal, state and local government web resources and services.